sensor_id;sensor_type;location;lat;lon;timestamp;P1;durP1;ratioP1;P2;durP2;ratioP2
63218;SDS011;49320;52.512;13.448;2023-04-01T00:00:45;4.07;;;2.25;;
63218;SDS011;49320;52.512;13.448;2023-04-01T00:03:12;3.05;;;2.03;;
63218;SDS011;49320;52.512;13.448;2023-04-01T00:05:39;3.10;;;1.90;;
63218;SDS011;49320;52.512;13.448;2023-04-01T00:08:06;2.67;;;1.50;;
63218;SDS011;49320;52.512;13.448;2023-04-01T00:10:32;2.05;;;1.58;;
63218;SDS011;49320;52.512;13.448;2023-04-01T00:12:59;1.85;;;1.58;;
63218;SDS011;49320;52.512;13.448;2023-04-01T00:15:26;3.67;;;1.90;;
63218;SDS011;49320;52.512;13.448;2023-04-01T00:17:53;2.00;;;1.60;;
63218;SDS011;49320;52.512;13.448;2023-04-01T00:20:21;2.78;;;1.40;;
63218;SDS011;49320;52.512;13.448;2023-04-01T00:22:48;2.70;;;1.50;;
63218;SDS011;49320;52.512;13.448;2023-04-01T00:25:15;2.63;;;1.42;;
63218;SDS011;49320;52.512;13.448;2023-04-01T00:27:42;2.80;;;1.60;;
63218;SDS011;49320;52.512;13.448;2023-04-01T00:30:09;3.50;;;1.73;;
63218;SDS011;49320;52.512;13.448;2023-04-01T00:32:37;3.22;;;1.48;;
63218;SDS011;49320;52.512;13.448;2023-04-01T00:35:04;3.10;;;2.25;;
63218;SDS011;49320;52.512;13.448;2023-04-01T00:37:34;2.85;;;1.70;;
63218;SDS011;49320;52.512;13.448;2023-04-01T00:40:06;2.17;;;1.55;;
63218;SDS011;49320;52.512;13.448;2023-04-01T00:42:46;1.55;;;1.30;;
63218;SDS011;49320;52.512;13.448;2023-04-01T00:48:13;1.75;;;1.15;;
63218;SDS011;49320;52.512;13.448;2023-04-01T00:50:48;2.60;;;1.60;;
63218;SDS011;49320;52.512;13.448;2023-04-01T00:53:23;2.35;;;1.45;;
63218;SDS011;49320;52.512;13.448;2023-04-01T00:55:52;2.70;;;1.38;;
63218;SDS011;49320;52.512;13.448;2023-04-01T00:58:26;1.80;;;1.30;;
63218;SDS011;49320;52.512;13.448;2023-04-01T01:00:57;1.42;;;1.17;;
63218;SDS011;49320;52.512;13.448;2023-04-01T01:03:27;2.53;;;1.40;;
63218;SDS011;49320;52.512;13.448;2023-04-01T01:09:03;1.73;;;1.25;;
63218;SDS011;49320;52.512;13.448;2023-04-01T01:14:45;3.47;;;1.52;;
63218;SDS011;49320;52.512;13.448;2023-04-01T01:23:23;2.33;;;1.27;;
63218;SDS011;49320;52.512;13.448;2023-04-01T01:29:16;2.92;;;1.98;;
63218;SDS011;49320;52.512;13.448;2023-04-01T01:35:20;3.53;;;1.30;;
63218;SDS011;49320;52.512;13.448;2023-04-01T01:38:11;3.05;;;1.20;;
63218;SDS011;49320;52.512;13.448;2023-04-01T01:40:44;2.30;;;1.52;;
63218;SDS011;49320;52.512;13.448;2023-04-01T01:43:18;2.25;;;1.33;;
63218;SDS011;49320;52.512;13.448;2023-04-01T01:45:52;2.30;;;1.43;;
63218;SDS011;49320;52.512;13.448;2023-04-01T01:48:24;1.30;;;1.20;;
63218;SDS011;49320;52.512;13.448;2023-04-01T01:50:53;3.67;;;1.20;;
63218;SDS011;49320;52.512;13.448;2023-04-01T01:53:20;2.05;;;1.38;;
63218;SDS011;49320;52.512;13.448;2023-04-01T01:55:47;2.42;;;1.60;;
63218;SDS011;49320;52.512;13.448;2023-04-01T02:01:07;2.58;;;1.58;;
63218;SDS011;49320;52.512;13.448;2023-04-01T02:03:41;1.88;;;1.27;;
63218;SDS011;49320;52.512;13.448;2023-04-01T02:06:13;3.60;;;1.58;;
63218;SDS011;49320;52.512;13.448;2023-04-01T02:08:55;2.88;;;1.40;;
63218;SDS011;49320;52.512;13.448;2023-04-01T02:11:28;2.20;;;1.60;;
63218;SDS011;49320;52.512;13.448;2023-04-01T02:14:03;2.13;;;1.33;;
63218;SDS011;49320;52.512;13.448;2023-04-01T02:19:30;2.05;;;1.40;;
63218;SDS011;49320;52.512;13.448;2023-04-01T02:22:05;2.88;;;1.58;;
63218;SDS011;49320;52.512;13.448;2023-04-01T02:24:39;2.25;;;1.48;;
63218;SDS011;49320;52.512;13.448;2023-04-01T02:27:11;3.80;;;1.65;;
63218;SDS011;49320;52.512;13.448;2023-04-01T02:29:38;3.13;;;1.70;;
63218;SDS011;49320;52.512;13.448;2023-04-01T02:32:05;4.03;;;1.95;;
63218;SDS011;49320;52.512;13.448;2023-04-01T02:34:34;3.42;;;1.50;;
63218;SDS011;49320;52.512;13.448;2023-04-01T02:37:02;3.85;;;1.55;;
63218;SDS011;49320;52.512;13.448;2023-04-01T02:39:29;2.20;;;1.13;;
63218;SDS011;49320;52.512;13.448;2023-04-01T02:41:56;3.15;;;1.52;;
63218;SDS011;49320;52.512;13.448;2023-04-01T02:44:23;2.90;;;1.50;;
63218;SDS011;49320;52.512;13.448;2023-04-01T02:46:50;3.20;;;1.70;;
63218;SDS011;49320;52.512;13.448;2023-04-01T02:49:16;3.22;;;1.90;;
63218;SDS011;49320;52.512;13.448;2023-04-01T02:51:43;5.00;;;2.15;;
63218;SDS011;49320;52.512;13.448;2023-04-01T02:54:10;4.20;;;2.05;;
63218;SDS011;49320;52.512;13.448;2023-04-01T02:56:37;3.63;;;2.00;;
63218;SDS011;49320;52.512;13.448;2023-04-01T02:59:04;2.42;;;1.67;;
63218;SDS011;49320;52.512;13.448;2023-04-01T03:01:31;4.10;;;1.95;;
63218;SDS011;49320;52.512;13.448;2023-04-01T03:03:58;3.80;;;1.83;;
63218;SDS011;49320;52.512;13.448;2023-04-01T03:06:24;3.30;;;2.00;;
63218;SDS011;49320;52.512;13.448;2023-04-01T03:08:51;3.53;;;2.00;;
63218;SDS011;49320;52.512;13.448;2023-04-01T03:11:18;4.07;;;2.17;;
63218;SDS011;49320;52.512;13.448;2023-04-01T03:13:45;3.83;;;2.05;;
63218;SDS011;49320;52.512;13.448;2023-04-01T03:16:12;2.72;;;1.60;;
63218;SDS011;49320;52.512;13.448;2023-04-01T03:18:39;4.05;;;2.17;;
63218;SDS011;49320;52.512;13.448;2023-04-01T03:21:14;3.30;;;1.67;;
63218;SDS011;49320;52.512;13.448;2023-04-01T03:23:43;3.78;;;1.90;;
63218;SDS011;49320;52.512;13.448;2023-04-01T03:26:10;2.63;;;1.50;;
63218;SDS011;49320;52.512;13.448;2023-04-01T03:28:37;3.60;;;1.60;;
63218;SDS011;49320;52.512;13.448;2023-04-01T03:31:05;3.92;;;1.77;;
63218;SDS011;49320;52.512;13.448;2023-04-01T03:33:32;2.80;;;1.52;;
63218;SDS011;49320;52.512;13.448;2023-04-01T03:35:59;4.72;;;1.73;;
63218;SDS011;49320;52.512;13.448;2023-04-01T03:38:26;2.28;;;1.52;;
63218;SDS011;49320;52.512;13.448;2023-04-01T03:40:53;2.42;;;1.58;;
63218;SDS011;49320;52.512;13.448;2023-04-01T03:43:20;3.33;;;1.75;;
63218;SDS011;49320;52.512;13.448;2023-04-01T03:45:47;2.53;;;1.63;;
63218;SDS011;49320;52.512;13.448;2023-04-01T03:48:17;3.15;;;1.67;;
63218;SDS011;49320;52.512;13.448;2023-04-01T03:50:44;4.50;;;2.22;;
63218;SDS011;49320;52.512;13.448;2023-04-01T03:53:13;3.63;;;1.98;;
63218;SDS011;49320;52.512;13.448;2023-04-01T03:55:40;2.42;;;1.90;;
63218;SDS011;49320;52.512;13.448;2023-04-01T03:58:07;3.45;;;1.73;;
63218;SDS011;49320;52.512;13.448;2023-04-01T04:00:34;3.70;;;1.88;;
63218;SDS011;49320;52.512;13.448;2023-04-01T04:03:02;3.47;;;2.17;;
63218;SDS011;49320;52.512;13.448;2023-04-01T04:05:29;3.47;;;2.03;;
63218;SDS011;49320;52.512;13.448;2023-04-01T04:07:57;4.03;;;1.90;;
63218;SDS011;49320;52.512;13.448;2023-04-01T04:10:24;3.67;;;1.90;;
63218;SDS011;49320;52.512;13.448;2023-04-01T04:12:51;2.63;;;1.83;;
63218;SDS011;49320;52.512;13.448;2023-04-01T04:15:18;3.13;;;1.77;;
63218;SDS011;49320;52.512;13.448;2023-04-01T04:17:45;3.55;;;1.58;;
63218;SDS011;49320;52.512;13.448;2023-04-01T04:20:13;2.88;;;2.03;;
63218;SDS011;49320;52.512;13.448;2023-04-01T04:22:40;2.35;;;1.50;;
63218;SDS011;49320;52.512;13.448;2023-04-01T04:25:07;4.30;;;1.60;;
63218;SDS011;49320;52.512;13.448;2023-04-01T04:27:34;2.67;;;1.60;;
63218;SDS011;49320;52.512;13.448;2023-04-01T04:30:02;2.75;;;1.60;;
63218;SDS011;49320;52.512;13.448;2023-04-01T04:32:31;2.70;;;1.45;;
63218;SDS011;49320;52.512;13.448;2023-04-01T04:34:58;3.75;;;1.98;;
63218;SDS011;49320;52.512;13.448;2023-04-01T04:37:25;2.85;;;1.50;;
63218;SDS011;49320;52.512;13.448;2023-04-01T04:39:52;6.25;;;1.85;;
63218;SDS011;49320;52.512;13.448;2023-04-01T04:42:19;2.97;;;1.73;;
63218;SDS011;49320;52.512;13.448;2023-04-01T04:44:46;3.50;;;1.90;;
63218;SDS011;49320;52.512;13.448;2023-04-01T04:47:13;5.85;;;2.38;;
63218;SDS011;49320;52.512;13.448;2023-04-01T04:49:39;4.47;;;2.30;;
63218;SDS011;49320;52.512;13.448;2023-04-01T04:52:06;4.30;;;2.20;;
63218;SDS011;49320;52.512;13.448;2023-04-01T04:54:33;2.95;;;1.60;;
63218;SDS011;49320;52.512;13.448;2023-04-01T04:57:00;3.92;;;2.08;;
63218;SDS011;49320;52.512;13.448;2023-04-01T04:59:27;5.57;;;1.90;;
63218;SDS011;49320;52.512;13.448;2023-04-01T05:01:54;3.45;;;1.92;;
63218;SDS011;49320;52.512;13.448;2023-04-01T05:04:21;2.55;;;1.42;;
63218;SDS011;49320;52.512;13.448;2023-04-01T05:06:48;3.70;;;1.60;;
63218;SDS011;49320;52.512;13.448;2023-04-01T05:09:14;2.13;;;1.73;;
63218;SDS011;49320;52.512;13.448;2023-04-01T05:11:41;3.55;;;1.90;;
63218;SDS011;49320;52.512;13.448;2023-04-01T05:14:12;2.67;;;2.00;;
63218;SDS011;49320;52.512;13.448;2023-04-01T05:16:41;5.30;;;2.35;;
63218;SDS011;49320;52.512;13.448;2023-04-01T05:19:08;4.32;;;2.05;;
63218;SDS011;49320;52.512;13.448;2023-04-01T05:21:34;3.42;;;2.20;;
63218;SDS011;49320;52.512;13.448;2023-04-01T05:24:01;3.63;;;1.63;;
63218;SDS011;49320;52.512;13.448;2023-04-01T05:26:28;4.10;;;1.63;;
63218;SDS011;49320;52.512;13.448;2023-04-01T05:28:55;3.13;;;1.60;;
63218;SDS011;49320;52.512;13.448;2023-04-01T05:31:22;2.72;;;1.75;;
63218;SDS011;49320;52.512;13.448;2023-04-01T05:33:50;3.45;;;1.63;;
63218;SDS011;49320;52.512;13.448;2023-04-01T05:36:17;2.70;;;1.42;;
63218;SDS011;49320;52.512;13.448;2023-04-01T05:38:44;2.40;;;1.63;;
63218;SDS011;49320;52.512;13.448;2023-04-01T05:41:12;3.10;;;1.65;;
63218;SDS011;49320;52.512;13.448;2023-04-01T05:43:42;3.95;;;1.80;;
63218;SDS011;49320;52.512;13.448;2023-04-01T05:46:08;2.85;;;1.40;;
63218;SDS011;49320;52.512;13.448;2023-04-01T05:48:36;3.00;;;1.60;;
63218;SDS011;49320;52.512;13.448;2023-04-01T05:51:04;3.55;;;1.88;;
63218;SDS011;49320;52.512;13.448;2023-04-01T05:53:31;3.22;;;2.00;;
63218;SDS011;49320;52.512;13.448;2023-04-01T05:56:01;3.15;;;2.10;;
63218;SDS011;49320;52.512;13.448;2023-04-01T05:58:29;1.80;;;1.45;;
63218;SDS011;49320;52.512;13.448;2023-04-01T06:01:00;3.95;;;2.00;;
63218;SDS011;49320;52.512;13.448;2023-04-01T06:03:37;3.30;;;1.92;;
63218;SDS011;49320;52.512;13.448;2023-04-01T06:06:05;4.50;;;2.28;;
63218;SDS011;49320;52.512;13.448;2023-04-01T06:08:40;2.85;;;1.95;;
63218;SDS011;49320;52.512;13.448;2023-04-01T06:14:31;3.28;;;1.65;;
63218;SDS011;49320;52.512;13.448;2023-04-01T06:17:20;2.90;;;1.80;;
63218;SDS011;49320;52.512;13.448;2023-04-01T06:19:57;2.70;;;1.38;;
63218;SDS011;49320;52.512;13.448;2023-04-01T06:22:46;3.28;;;1.38;;
63218;SDS011;49320;52.512;13.448;2023-04-01T06:25:46;3.63;;;1.65;;
63218;SDS011;49320;52.512;13.448;2023-04-01T06:32:28;7.75;;;1.73;;
63218;SDS011;49320;52.512;13.448;2023-04-01T06:38:25;2.70;;;1.58;;
63218;SDS011;49320;52.512;13.448;2023-04-01T06:41:28;3.90;;;1.67;;
63218;SDS011;49320;52.512;13.448;2023-04-01T06:47:13;3.38;;;1.50;;
63218;SDS011;49320;52.512;13.448;2023-04-01T06:56:17;2.45;;;1.50;;
63218;SDS011;49320;52.512;13.448;2023-04-01T06:58:49;3.22;;;2.13;;
63218;SDS011;49320;52.512;13.448;2023-04-01T07:01:42;3.85;;;2.80;;
63218;SDS011;49320;52.512;13.448;2023-04-01T07:04:32;4.50;;;2.53;;
63218;SDS011;49320;52.512;13.448;2023-04-01T07:07:14;2.67;;;2.10;;
63218;SDS011;49320;52.512;13.448;2023-04-01T07:10:03;3.35;;;2.40;;
63218;SDS011;49320;52.512;13.448;2023-04-01T07:12:42;3.42;;;2.50;;
63218;SDS011;49320;52.512;13.448;2023-04-01T07:15:19;3.10;;;2.20;;
63218;SDS011;49320;52.512;13.448;2023-04-01T07:18:15;3.92;;;1.90;;
63218;SDS011;49320;52.512;13.448;2023-04-01T07:21:03;5.22;;;2.25;;
63218;SDS011;49320;52.512;13.448;2023-04-01T07:23:38;2.97;;;2.05;;
63218;SDS011;49320;52.512;13.448;2023-04-01T07:26:18;2.80;;;2.10;;
63218;SDS011;49320;52.512;13.448;2023-04-01T07:28:48;3.75;;;2.33;;
63218;SDS011;49320;52.512;13.448;2023-04-01T07:31:39;3.15;;;2.10;;
63218;SDS011;49320;52.512;13.448;2023-04-01T07:40:50;4.38;;;2.95;;
63218;SDS011;49320;52.512;13.448;2023-04-01T07:43:53;5.78;;;4.65;;
63218;SDS011;49320;52.512;13.448;2023-04-01T07:49:17;7.80;;;4.13;;
63218;SDS011;49320;52.512;13.448;2023-04-01T07:52:33;4.47;;;3.47;;
63218;SDS011;49320;52.512;13.448;2023-04-01T07:55:16;4.15;;;2.38;;
63218;SDS011;49320;52.512;13.448;2023-04-01T07:58:14;4.53;;;2.53;;
63218;SDS011;49320;52.512;13.448;2023-04-01T08:00:59;5.38;;;2.90;;
63218;SDS011;49320;52.512;13.448;2023-04-01T08:03:49;3.47;;;2.20;;
63218;SDS011;49320;52.512;13.448;2023-04-01T08:06:55;5.78;;;2.53;;
63218;SDS011;49320;52.512;13.448;2023-04-01T08:09:53;3.17;;;2.40;;
63218;SDS011;49320;52.512;13.448;2023-04-01T08:15:38;3.20;;;1.88;;
63218;SDS011;49320;52.512;13.448;2023-04-01T08:18:35;2.33;;;1.80;;
63218;SDS011;49320;52.512;13.448;2023-04-01T08:23:52;2.67;;;2.00;;
63218;SDS011;49320;52.512;13.448;2023-04-01T08:31:43;2.90;;;2.53;;
63218;SDS011;49320;52.512;13.448;2023-04-01T08:34:28;3.85;;;3.28;;
63218;SDS011;49320;52.512;13.448;2023-04-01T08:37:13;3.33;;;3.03;;
63218;SDS011;49320;52.512;13.448;2023-04-01T08:45:39;4.63;;;3.92;;
63218;SDS011;49320;52.512;13.448;2023-04-01T08:48:19;4.00;;;3.55;;
63218;SDS011;49320;52.512;13.448;2023-04-01T08:51:15;4.88;;;3.80;;
63218;SDS011;49320;52.512;13.448;2023-04-01T08:54:27;4.70;;;4.10;;
63218;SDS011;49320;52.512;13.448;2023-04-01T09:09:39;4.55;;;4.03;;
63218;SDS011;49320;52.512;13.448;2023-04-01T09:17:42;4.72;;;4.20;;
63218;SDS011;49320;52.512;13.448;2023-04-01T09:20:46;4.28;;;3.88;;
63218;SDS011;49320;52.512;13.448;2023-04-01T09:32:42;5.20;;;4.70;;
63218;SDS011;49320;52.512;13.448;2023-04-01T09:44:05;6.25;;;5.47;;
63218;SDS011;49320;52.512;13.448;2023-04-01T09:53:19;6.20;;;5.70;;
63218;SDS011;49320;52.512;13.448;2023-04-01T09:59:24;6.40;;;5.85;;
63218;SDS011;49320;52.512;13.448;2023-04-01T10:02:54;6.97;;;5.47;;
63218;SDS011;49320;52.512;13.448;2023-04-01T10:06:09;5.63;;;5.13;;
63218;SDS011;49320;52.512;13.448;2023-04-01T10:15:46;5.30;;;4.80;;
63218;SDS011;49320;52.512;13.448;2023-04-01T10:24:22;5.25;;;4.75;;
63218;SDS011;49320;52.512;13.448;2023-04-01T10:27:16;5.35;;;4.85;;
63218;SDS011;49320;52.512;13.448;2023-04-01T10:30:03;5.60;;;5.10;;
63218;SDS011;49320;52.512;13.448;2023-04-01T10:44:34;4.85;;;4.45;;
63218;SDS011;49320;52.512;13.448;2023-04-01T10:54:05;4.20;;;3.80;;
63218;SDS011;49320;52.512;13.448;2023-04-01T10:57:02;4.25;;;3.85;;
63218;SDS011;49320;52.512;13.448;2023-04-01T11:00:01;3.90;;;3.50;;
63218;SDS011;49320;52.512;13.448;2023-04-01T11:02:57;3.67;;;3.13;;
63218;SDS011;49320;52.512;13.448;2023-04-01T11:06:27;3.30;;;3.00;;
63218;SDS011;49320;52.512;13.448;2023-04-01T11:09:29;2.95;;;2.67;;
63218;SDS011;49320;52.512;13.448;2023-04-01T11:22:24;2.50;;;2.30;;
63218;SDS011;49320;52.512;13.448;2023-04-01T11:25:20;2.70;;;2.20;;
63218;SDS011;49320;52.512;13.448;2023-04-01T11:28:10;2.50;;;2.30;;
63218;SDS011;49320;52.512;13.448;2023-04-01T11:30:58;2.80;;;2.35;;
63218;SDS011;49320;52.512;13.448;2023-04-01T11:33:41;2.50;;;2.28;;
63218;SDS011;49320;52.512;13.448;2023-04-01T11:36:33;4.22;;;2.40;;
63218;SDS011;49320;52.512;13.448;2023-04-01T11:42:17;2.60;;;2.03;;
63218;SDS011;49320;52.512;13.448;2023-04-01T11:45:21;2.80;;;2.20;;
63218;SDS011;49320;52.512;13.448;2023-04-01T11:48:12;2.25;;;1.98;;
63218;SDS011;49320;52.512;13.448;2023-04-01T11:51:03;2.00;;;1.85;;
63218;SDS011;49320;52.512;13.448;2023-04-01T12:06:23;2.72;;;2.25;;
63218;SDS011;49320;52.512;13.448;2023-04-01T12:15:20;2.60;;;2.30;;
63218;SDS011;49320;52.512;13.448;2023-04-01T12:18:40;2.40;;;2.20;;
63218;SDS011;49320;52.512;13.448;2023-04-01T12:21:24;3.25;;;2.88;;
63218;SDS011;49320;52.512;13.448;2023-04-01T12:28:00;3.00;;;2.70;;
63218;SDS011;49320;52.512;13.448;2023-04-01T12:33:07;2.90;;;2.70;;
63218;SDS011;49320;52.512;13.448;2023-04-01T12:39:28;3.53;;;2.63;;
63218;SDS011;49320;52.512;13.448;2023-04-01T12:45:03;3.95;;;3.03;;
63218;SDS011;49320;52.512;13.448;2023-04-01T12:50:57;3.28;;;2.97;;
63218;SDS011;49320;52.512;13.448;2023-04-01T12:53:53;4.67;;;2.70;;
63218;SDS011;49320;52.512;13.448;2023-04-01T12:57:12;3.58;;;3.25;;
63218;SDS011;49320;52.512;13.448;2023-04-01T13:06:07;4.57;;;4.05;;
63218;SDS011;49320;52.512;13.448;2023-04-01T13:12:17;6.22;;;4.80;;
63218;SDS011;49320;52.512;13.448;2023-04-01T13:15:17;6.70;;;5.57;;
63218;SDS011;49320;52.512;13.448;2023-04-01T13:18:19;6.18;;;5.57;;
63218;SDS011;49320;52.512;13.448;2023-04-01T13:27:00;4.82;;;4.18;;
63218;SDS011;49320;52.512;13.448;2023-04-01T13:29:41;4.80;;;4.40;;
63218;SDS011;49320;52.512;13.448;2023-04-01T13:32:18;5.63;;;4.93;;
63218;SDS011;49320;52.512;13.448;2023-04-01T13:37:59;4.80;;;4.40;;
63218;SDS011;49320;52.512;13.448;2023-04-01T13:43:51;4.82;;;4.43;;
63218;SDS011;49320;52.512;13.448;2023-04-01T13:55:24;4.88;;;4.47;;
63218;SDS011;49320;52.512;13.448;2023-04-01T14:06:56;5.22;;;4.78;;
63218;SDS011;49320;52.512;13.448;2023-04-01T14:12:51;5.05;;;4.65;;
63218;SDS011;49320;52.512;13.448;2023-04-01T14:16:41;5.25;;;4.75;;
63218;SDS011;49320;52.512;13.448;2023-04-01T14:25:44;4.85;;;4.45;;
63218;SDS011;49320;52.512;13.448;2023-04-01T14:31:43;5.10;;;4.68;;
63218;SDS011;49320;52.512;13.448;2023-04-01T14:34:55;4.85;;;4.32;;
63218;SDS011;49320;52.512;13.448;2023-04-01T14:41:25;4.40;;;4.00;;
63218;SDS011;49320;52.512;13.448;2023-04-01T14:44:18;4.72;;;4.32;;
63218;SDS011;49320;52.512;13.448;2023-04-01T14:47:23;6.00;;;4.43;;
63218;SDS011;49320;52.512;13.448;2023-04-01T14:50:18;5.00;;;4.60;;
63218;SDS011;49320;52.512;13.448;2023-04-01T14:53:12;4.30;;;3.95;;
63218;SDS011;49320;52.512;13.448;2023-04-01T14:55:52;4.50;;;4.10;;
63218;SDS011;49320;52.512;13.448;2023-04-01T14:58:23;4.43;;;4.03;;
63218;SDS011;49320;52.512;13.448;2023-04-01T15:18:49;5.13;;;4.35;;
63218;SDS011;49320;52.512;13.448;2023-04-01T15:24:56;5.53;;;5.03;;
63218;SDS011;49320;52.512;13.448;2023-04-01T15:28:19;4.25;;;3.85;;
63218;SDS011;49320;52.512;13.448;2023-04-01T15:31:25;4.70;;;4.30;;
63218;SDS011;49320;52.512;13.448;2023-04-01T15:34:12;4.85;;;4.45;;
63218;SDS011;49320;52.512;13.448;2023-04-01T15:37:01;5.07;;;4.57;;
63218;SDS011;49320;52.512;13.448;2023-04-01T15:42:46;3.75;;;3.28;;
63218;SDS011;49320;52.512;13.448;2023-04-01T15:48:41;3.88;;;3.08;;
63218;SDS011;49320;52.512;13.448;2023-04-01T15:57:06;3.80;;;2.85;;
63218;SDS011;49320;52.512;13.448;2023-04-01T16:00:09;3.30;;;2.90;;
63218;SDS011;49320;52.512;13.448;2023-04-01T16:03:08;3.30;;;3.00;;
63218;SDS011;49320;52.512;13.448;2023-04-01T16:06:09;4.90;;;4.40;;
63218;SDS011;49320;52.512;13.448;2023-04-01T16:08:47;4.30;;;3.90;;
63218;SDS011;49320;52.512;13.448;2023-04-01T16:11:43;4.97;;;3.78;;
63218;SDS011;49320;52.512;13.448;2023-04-01T16:14:55;4.85;;;3.90;;
63218;SDS011;49320;52.512;13.448;2023-04-01T16:21:05;4.60;;;3.97;;
63218;SDS011;49320;52.512;13.448;2023-04-01T16:23:47;4.60;;;4.20;;
63218;SDS011;49320;52.512;13.448;2023-04-01T16:26:37;3.88;;;3.53;;
63218;SDS011;49320;52.512;13.448;2023-04-01T16:35:16;4.25;;;3.58;;
63218;SDS011;49320;52.512;13.448;2023-04-01T16:38:07;3.78;;;3.47;;
63218;SDS011;49320;52.512;13.448;2023-04-01T16:40:52;4.00;;;3.45;;
63218;SDS011;49320;52.512;13.448;2023-04-01T16:46:38;3.95;;;3.55;;
63218;SDS011;49320;52.512;13.448;2023-04-01T16:56:49;3.55;;;3.25;;
63218;SDS011;49320;52.512;13.448;2023-04-01T16:59:35;4.45;;;3.58;;
63218;SDS011;49320;52.512;13.448;2023-04-01T17:02:38;3.83;;;3.30;;
63218;SDS011;49320;52.512;13.448;2023-04-01T17:05:16;3.97;;;3.45;;
63218;SDS011;49320;52.512;13.448;2023-04-01T17:07:46;3.72;;;3.30;;
63218;SDS011;49320;52.512;13.448;2023-04-01T17:10:34;4.72;;;3.30;;
63218;SDS011;49320;52.512;13.448;2023-04-01T17:13:43;4.82;;;3.10;;
63218;SDS011;49320;52.512;13.448;2023-04-01T17:16:25;4.18;;;3.78;;
63218;SDS011;49320;52.512;13.448;2023-04-01T17:19:13;4.82;;;4.35;;
63218;SDS011;49320;52.512;13.448;2023-04-01T17:21:57;4.70;;;3.90;;
63218;SDS011;49320;52.512;13.448;2023-04-01T17:24:47;4.13;;;3.72;;
63218;SDS011;49320;52.512;13.448;2023-04-01T17:27:46;4.57;;;3.63;;
63218;SDS011;49320;52.512;13.448;2023-04-01T17:30:35;3.92;;;3.38;;
63218;SDS011;49320;52.512;13.448;2023-04-01T17:33:39;3.75;;;3.45;;
63218;SDS011;49320;52.512;13.448;2023-04-01T17:43:31;4.97;;;3.92;;
63218;SDS011;49320;52.512;13.448;2023-04-01T17:49:19;4.68;;;3.50;;
63218;SDS011;49320;52.512;13.448;2023-04-01T18:01:06;4.68;;;3.83;;
63218;SDS011;49320;52.512;13.448;2023-04-01T18:06:58;4.95;;;4.03;;
63218;SDS011;49320;52.512;13.448;2023-04-01T18:10:27;3.72;;;3.30;;
63218;SDS011;49320;52.512;13.448;2023-04-01T18:16:12;4.80;;;3.67;;
63218;SDS011;49320;52.512;13.448;2023-04-01T18:19:13;4.65;;;3.65;;
63218;SDS011;49320;52.512;13.448;2023-04-01T18:24:45;4.18;;;3.58;;
63218;SDS011;49320;52.512;13.448;2023-04-01T18:27:32;4.32;;;3.33;;
63218;SDS011;49320;52.512;13.448;2023-04-01T18:30:25;3.72;;;3.20;;
63218;SDS011;49320;52.512;13.448;2023-04-01T18:33:34;4.20;;;3.65;;
63218;SDS011;49320;52.512;13.448;2023-04-01T18:36:15;4.20;;;3.20;;
63218;SDS011;49320;52.512;13.448;2023-04-01T18:39:07;4.53;;;3.75;;
63218;SDS011;49320;52.512;13.448;2023-04-01T18:45:22;4.28;;;3.50;;
63218;SDS011;49320;52.512;13.448;2023-04-01T18:50:57;4.68;;;3.53;;
63218;SDS011;49320;52.512;13.448;2023-04-01T18:56:08;4.20;;;3.30;;
63218;SDS011;49320;52.512;13.448;2023-04-01T18:58:47;4.60;;;3.80;;
63218;SDS011;49320;52.512;13.448;2023-04-01T19:01:26;4.80;;;3.75;;
63218;SDS011;49320;52.512;13.448;2023-04-01T19:10:17;4.15;;;3.58;;
63218;SDS011;49320;52.512;13.448;2023-04-01T19:21:43;7.18;;;4.45;;
63218;SDS011;49320;52.512;13.448;2023-04-01T19:24:34;5.22;;;3.95;;
63218;SDS011;49320;52.512;13.448;2023-04-01T19:28:00;6.15;;;4.80;;
63218;SDS011;49320;52.512;13.448;2023-04-01T19:30:58;6.57;;;4.82;;
63218;SDS011;49320;52.512;13.448;2023-04-01T19:33:42;7.40;;;6.13;;
63218;SDS011;49320;52.512;13.448;2023-04-01T19:37:04;8.88;;;6.60;;
63218;SDS011;49320;52.512;13.448;2023-04-01T19:48:27;7.80;;;5.68;;
63218;SDS011;49320;52.512;13.448;2023-04-01T19:51:31;7.85;;;5.30;;
63218;SDS011;49320;52.512;13.448;2023-04-01T19:54:42;7.75;;;5.55;;
63218;SDS011;49320;52.512;13.448;2023-04-01T19:57:51;7.18;;;4.65;;
63218;SDS011;49320;52.512;13.448;2023-04-01T20:00:44;6.25;;;5.13;;
63218;SDS011;49320;52.512;13.448;2023-04-01T20:09:04;7.65;;;4.97;;
63218;SDS011;49320;52.512;13.448;2023-04-01T20:11:55;6.63;;;4.97;;
63218;SDS011;49320;52.512;13.448;2023-04-01T20:14:45;6.95;;;4.82;;
63218;SDS011;49320;52.512;13.448;2023-04-01T20:27:56;6.70;;;5.38;;
63218;SDS011;49320;52.512;13.448;2023-04-01T20:31:15;6.60;;;5.30;;
63218;SDS011;49320;52.512;13.448;2023-04-01T20:33:52;6.72;;;6.03;;
63218;SDS011;49320;52.512;13.448;2023-04-01T20:36:45;6.78;;;5.40;;
63218;SDS011;49320;52.512;13.448;2023-04-01T20:39:47;6.25;;;5.28;;
63218;SDS011;49320;52.512;13.448;2023-04-01T20:45:46;5.45;;;4.90;;
63218;SDS011;49320;52.512;13.448;2023-04-01T20:49:05;6.80;;;4.53;;
63218;SDS011;49320;52.512;13.448;2023-04-01T20:57:49;6.78;;;4.90;;
63218;SDS011;49320;52.512;13.448;2023-04-01T21:07:01;6.07;;;4.65;;
63218;SDS011;49320;52.512;13.448;2023-04-01T21:15:33;5.80;;;4.47;;
63218;SDS011;49320;52.512;13.448;2023-04-01T21:18:23;5.00;;;4.00;;
63218;SDS011;49320;52.512;13.448;2023-04-01T21:21:35;5.18;;;3.63;;
63218;SDS011;49320;52.512;13.448;2023-04-01T21:27:35;5.82;;;4.32;;
63218;SDS011;49320;52.512;13.448;2023-04-01T21:33:15;5.38;;;4.75;;
63218;SDS011;49320;52.512;13.448;2023-04-01T21:39:05;7.07;;;4.35;;
63218;SDS011;49320;52.512;13.448;2023-04-01T21:42:05;6.45;;;4.40;;
63218;SDS011;49320;52.512;13.448;2023-04-01T21:48:14;5.20;;;4.28;;
63218;SDS011;49320;52.512;13.448;2023-04-01T21:51:40;4.93;;;3.60;;
63218;SDS011;49320;52.512;13.448;2023-04-01T22:00:51;4.63;;;3.58;;
63218;SDS011;49320;52.512;13.448;2023-04-01T22:03:33;4.90;;;4.18;;
63218;SDS011;49320;52.512;13.448;2023-04-01T22:12:31;6.13;;;3.47;;
63218;SDS011;49320;52.512;13.448;2023-04-01T22:15:14;7.47;;;4.35;;
63218;SDS011;49320;52.512;13.448;2023-04-01T22:20:28;5.07;;;3.67;;
63218;SDS011;49320;52.512;13.448;2023-04-01T22:25:59;5.35;;;3.83;;
63218;SDS011;49320;52.512;13.448;2023-04-01T22:31:26;4.80;;;3.53;;
63218;SDS011;49320;52.512;13.448;2023-04-01T22:34:09;6.95;;;3.50;;
63218;SDS011;49320;52.512;13.448;2023-04-01T22:36:57;7.63;;;3.70;;
63218;SDS011;49320;52.512;13.448;2023-04-01T22:42:59;5.78;;;3.85;;
63218;SDS011;49320;52.512;13.448;2023-04-01T22:51:18;3.58;;;3.00;;
63218;SDS011;49320;52.512;13.448;2023-04-01T22:57:00;5.18;;;3.15;;
63218;SDS011;49320;52.512;13.448;2023-04-01T23:02:13;5.32;;;3.17;;
63218;SDS011;49320;52.512;13.448;2023-04-01T23:05:02;4.20;;;3.22;;
63218;SDS011;49320;52.512;13.448;2023-04-01T23:07:43;3.95;;;2.80;;
63218;SDS011;49320;52.512;13.448;2023-04-01T23:11:14;2.95;;;2.40;;
63218;SDS011;49320;52.512;13.448;2023-04-01T23:13:50;3.30;;;2.75;;
63218;SDS011;49320;52.512;13.448;2023-04-01T23:16:38;3.33;;;2.75;;
63218;SDS011;49320;52.512;13.448;2023-04-01T23:19:20;4.65;;;3.20;;
63218;SDS011;49320;52.512;13.448;2023-04-01T23:24:37;3.30;;;2.90;;
63218;SDS011;49320;52.512;13.448;2023-04-01T23:27:21;3.53;;;2.88;;
63218;SDS011;49320;52.512;13.448;2023-04-01T23:32:30;3.95;;;3.20;;
63218;SDS011;49320;52.512;13.448;2023-04-01T23:34:57;2.63;;;2.35;;
63218;SDS011;49320;52.512;13.448;2023-04-01T23:37:26;4.50;;;2.75;;